Bookmark and Share
Track history (hours):
 

Viseu

Last reported at 2012-Aug-11 01:32 UTC. Time now 2014-Apr-20 19:08 UTC.
Position N 53°00' W 005°37'.
Warning: this ship's position is years out of date!

Length 90 m; draft 4.8 m.

Type: Cargo ship. MMSI: 255803370.

NotesDate/timePositionNaut miles runAvg speedWind from/ knotsBaromVisibWave heightAir tempDewpointWater temp
2012-Aug-11 01:32N 53°00' W 005°37'9 9.2
2012-Aug-11 00:33N 53°09' W 005°39'1010.2
2012-Aug-10 23:33N 53°19' W 005°44'1110.8
2012-Aug-10 22:33N 53°29' W 005°48'1111.1
2012-Aug-10 21:33N 53°40' W 005°52'1111.3
2012-Aug-10 20:33N 53°51' W 005°57'8 7.9
2012-Aug-10 19:33N 53°59' W 006°01'  
2012-Aug-07 20:33N 54°01' W 006°03'  
2012-Aug-05 09:31N 53°43' W 005°54'1111.9
2012-Aug-05 08:33N 53°32' W 005°49'95 8.6
2012-Aug-04 21:27N 52°01' W 006°38'1011.2
2012-Aug-04 20:34N 52°05' W 006°53'9 8.5
2012-Aug-04 19:33N 52°14' W 006°57'6 6.1
2012-Aug-04 18:33N 52°19' W 006°59'1 0.0
2012-Aug-03 06:33N 52°19' W 007°00'7 7.2
2012-Aug-03 05:34N 52°12' W 006°56'4 4.6
2012-Aug-03 04:36N 52°08' W 006°58'0 0.0
2012-Aug-03 03:30N 52°08' W 006°58'0 0.0
2012-Aug-03 02:33N 52°08' W 006°58'3 2.9
2012-Aug-03 01:33N 52°05' W 006°58'9 8.6
2012-Aug-03 00:33N 51°57' W 006°55'10 9.7
2012-Aug-02 23:33N 51°48' W 006°49'268 7.6
2012-Aug-01 12:32N 50°31' E 000°00'1211.5
2012-Aug-01 11:28N 50°34' E 000°19'910.7
2012-Aug-01 10:35N 50°37' E 000°33'10 9.9
2012-Aug-01 09:33N 50°43' E 000°46'10 9.8
2012-Aug-01 08:33N 50°48' E 000°59'1110.6
2012-Aug-01 07:31N 50°55' E 001°12'1212.7
2012-Aug-01 06:33N 51°04' E 001°26'1413.8
2012-Aug-01 05:33N 51°12' E 001°43'1212.0
2012-Aug-01 04:36N 51°22' E 001°53'10 9.4
2012-Aug-01 03:33N 51°23' E 002°09'1010.1
2012-Aug-01 02:33N 51°22' E 002°25'1010.1
2012-Aug-01 01:33N 51°23' E 002°41'  

Dump ship's entire track history

sailing weather and tide predictions

Viseu — CQMH — position and weather